This is the latest recevied weather packets stored in our database for station/object NM5PB-13. If no packets are shown the sender has not sent any weather packets the latest 10 day(s).
| Time | Temp. | Humidity | Pressure | Rain* | Wind** | Luminosity | Snow |
|---|---|---|---|---|---|---|---|
| 1787487290 | 12.78° C | 90% | 1019 hPa | 0 mm | - | - | - |
| 1787486375 | 12.22° C | 91% | 1019 hPa | 0 mm | - | - | - |
| 1787485456 | 12.22° C | 92% | 1019 hPa | 0 mm | - | - | - |
| 1787484544 | 12.22° C | 90% | 1019 hPa | 0 mm | - | - | - |
| 1787483634 | 12.78° C | 89% | 1019 hPa | 0 mm | - | - | - |
| 1787482731 | 13.33° C | 86% | 1019 hPa | 0 mm | - | - | - |
| 1787481816 | 13.89° C | 84% | 1019 hPa | 0 mm | - | - | - |
| 1787480900 | 13.89° C | 84% | 1019 hPa | 0 mm | - | - | - |
| 1787479996 | 13.89° C | 86% | 1019 hPa | 0 mm | - | - | - |
| 1787479085 | 13.89° C | 84% | 1019 hPa | 0 mm | - | - | - |
| 1787478172 | 14.44° C | 82% | 1019 hPa | 0 mm | - | - | - |
| 1787477256 | 14.44° C | 82% | 1019 hPa | 0 mm | - | - | - |
| 1787476341 | 15° C | 81% | 1019 hPa | 0 mm | - | - | - |
| 1787475436 | 15° C | 81% | 1019 hPa | 0 mm | - | - | - |
| 1787474527 | 15° C | 81% | 1019 hPa | 0 mm | - | - | - |
| 1787473614 | 15.56° C | 81% | 1019 hPa | 0 mm | - | - | - |
| 1787472696 | 15.56° C | 81% | 1018 hPa | 0 mm | - | - | - |
| 1787471784 | 15.56° C | 81% | 1018 hPa | 0 mm | - | - | - |
| 1787470874 | 15.56° C | 81% | 1019 hPa | 0 mm | - | - | - |
| 1787469968 | 16.11° C | 80% | 1019 hPa | 0 mm | - | - | - |
| 1787469055 | 16.11° C | 80% | 1019 hPa | 0 mm | - | - | - |
| 1787468136 | 16.11° C | 81% | 1019 hPa | 0 mm | - | - | - |
| 1787467225 | 16.11° C | 81% | 1019 hPa | 0 mm | - | - | - |
| 1787466314 | 16.11° C | 82% | 1019 hPa | 0 mm | - | - | - |
| 1787465409 | 16.67° C | 82% | 1018 hPa | 0 mm | - | - | - |
* Rain latest hour (hover to see other rain measurements)
** Current wind speed in m/s (hover to see current wind gust speed)